createdAt,value
2022-11-21T00:10:21.302Z,4.4
2022-11-21T00:22:21.850Z,4.3
2022-11-21T00:34:21.199Z,4.4
2022-11-21T00:46:21.194Z,4.6
2022-11-21T00:58:21.287Z,4.6
2022-11-21T01:10:21.293Z,4.6
2022-11-21T01:22:21.192Z,4.6
2022-11-21T01:34:21.308Z,4.7
2022-11-21T01:46:21.198Z,4.7
2022-11-21T01:58:21.262Z,4.5
2022-11-21T02:10:21.190Z,4.6
2022-11-21T02:22:21.195Z,4.9
2022-11-21T02:34:21.303Z,5.1
2022-11-21T02:46:21.198Z,4.9
2022-11-21T02:58:21.188Z,4.9
2022-11-21T03:10:21.280Z,4.9
2022-11-21T03:22:21.303Z,4.8
2022-11-21T03:34:21.271Z,4.9
2022-11-21T03:46:21.190Z,5.0
2022-11-21T03:58:21.306Z,5.1
2022-11-21T04:10:21.292Z,5.0
2022-11-21T04:22:21.276Z,4.9
2022-11-21T04:34:21.310Z,4.7
2022-11-21T04:46:21.193Z,4.6
2022-11-21T04:58:21.299Z,4.5
2022-11-21T05:10:21.277Z,4.5
2022-11-21T05:22:21.311Z,4.4
2022-11-21T05:34:21.205Z,4.4
2022-11-21T05:46:21.195Z,4.3
2022-11-21T05:58:21.275Z,4.2
2022-11-21T06:10:21.247Z,4.2
2022-11-21T06:22:21.287Z,4.1
2022-11-21T06:34:21.247Z,4.1
2022-11-21T06:46:21.189Z,4.1
2022-11-21T06:58:21.304Z,4.1
2022-11-21T07:10:21.209Z,4.2
2022-11-21T07:22:21.255Z,4.2
2022-11-21T07:34:21.298Z,4.2
2022-11-21T07:46:21.193Z,4.3
2022-11-21T07:58:21.289Z,4.3
2022-11-21T08:10:21.251Z,4.4
2022-11-21T08:22:21.192Z,4.5
2022-11-21T08:34:21.289Z,4.6
2022-11-21T08:46:21.199Z,4.6
2022-11-21T08:58:21.197Z,4.6
2022-11-21T09:10:21.301Z,4.8
2022-11-21T09:22:21.272Z,5.1
2022-11-21T09:34:21.217Z,5.1
2022-11-21T09:46:21.208Z,5.4
2022-11-21T09:58:21.267Z,5.3
2022-11-21T10:10:21.304Z,5.2
2022-11-21T10:22:21.200Z,5.6
2022-11-21T10:34:21.258Z,5.4
2022-11-21T10:46:21.363Z,5.2
2022-11-21T10:58:21.302Z,5.3
2022-11-21T11:10:26.958Z,5.4
2022-11-21T11:22:21.250Z,5.6
2022-11-21T11:34:21.224Z,5.4
2022-11-21T11:46:21.189Z,5.5
2022-11-21T11:58:21.195Z,5.4
2022-11-21T12:10:21.260Z,5.4
2022-11-21T12:22:21.314Z,6.0
2022-11-21T12:34:21.287Z,6.0
2022-11-21T12:46:21.194Z,6.3
2022-11-21T12:58:21.195Z,6.4
2022-11-21T13:10:21.314Z,6.3
2022-11-21T13:22:21.280Z,6.1
2022-11-21T13:34:21.398Z,6.1
2022-11-21T13:46:21.192Z,6.4
2022-11-21T13:58:21.282Z,6.3
2022-11-21T14:10:21.285Z,6.2
2022-11-21T14:22:21.200Z,6.1
2022-11-21T14:34:21.195Z,6.1
2022-11-21T14:46:21.195Z,5.8
2022-11-21T14:58:21.396Z,5.3
2022-11-21T15:10:30.183Z,4.7
2022-11-21T15:22:21.205Z,4.6
2022-11-21T15:34:35.399Z,4.5
2022-11-21T15:46:21.191Z,4.4
2022-11-21T15:58:21.192Z,4.2
2022-11-21T16:10:26.207Z,4.2
2022-11-21T16:22:21.191Z,4.3
2022-11-21T16:34:21.259Z,4.3
2022-11-21T16:46:21.201Z,4.5
2022-11-21T16:58:21.310Z,4.5
2022-11-21T17:10:21.194Z,4.6
2022-11-21T17:22:24.600Z,4.7
2022-11-21T17:34:22.498Z,4.7
2022-11-21T17:46:21.203Z,4.7
2022-11-21T17:58:21.310Z,4.6
2022-11-21T18:10:42.343Z,4.6
2022-11-21T18:22:26.293Z,4.6
2022-11-21T18:34:21.313Z,4.7
2022-11-21T18:46:21.254Z,4.9
2022-11-21T18:58:21.202Z,4.9
2022-11-21T19:10:41.966Z,4.9
2022-11-21T19:22:21.308Z,4.9
2022-11-21T19:34:21.211Z,5.0
2022-11-21T19:46:21.197Z,5.0
2022-11-21T19:58:21.296Z,5.0
2022-11-21T20:10:21.303Z,5.1
2022-11-21T20:22:21.194Z,5.3
2022-11-21T20:34:21.214Z,5.4
2022-11-21T20:46:21.444Z,5.3
2022-11-21T20:58:21.191Z,5.1
2022-11-21T21:10:21.293Z,5.0
2022-11-21T21:22:21.247Z,4.8
2022-11-21T21:34:21.312Z,4.7
2022-11-21T21:46:21.191Z,4.7
2022-11-21T21:58:21.204Z,4.7
2022-11-21T22:10:21.279Z,4.6
2022-11-21T22:22:21.196Z,4.6
2022-11-21T22:34:21.192Z,4.6
2022-11-21T22:46:21.206Z,4.6
2022-11-21T22:58:21.250Z,4.6
2022-11-21T23:10:21.360Z,4.6
2022-11-21T23:22:21.188Z,4.6
2022-11-21T23:34:21.201Z,4.6
2022-11-21T23:46:21.196Z,4.7
2022-11-21T23:58:21.310Z,4.7
